createdAt,value
2019-03-25T00:00:39.607Z,28.77
2019-03-25T00:03:10.772Z,27.67
2019-03-25T00:05:41.799Z,32.53
2019-03-25T00:08:11.346Z,28.33
2019-03-25T00:10:40.918Z,26.87
2019-03-25T00:13:10.703Z,29.87
2019-03-25T00:15:40.331Z,32.80
2019-03-25T00:18:09.910Z,29.27
2019-03-25T00:20:39.405Z,27.57
2019-03-25T00:23:08.953Z,29.17
2019-03-25T00:25:38.442Z,28.00
2019-03-25T00:28:07.843Z,30.17
2019-03-25T00:30:37.357Z,31.80
2019-03-25T00:33:06.856Z,28.53
2019-03-25T00:35:36.282Z,29.33
2019-03-25T00:38:05.776Z,29.20
2019-03-25T00:40:35.195Z,30.93
2019-03-25T00:43:04.606Z,29.70
2019-03-25T00:45:34.063Z,27.27
2019-03-25T00:48:03.475Z,29.60
2019-03-25T00:50:32.935Z,30.63
2019-03-25T00:53:02.350Z,29.40
2019-03-25T00:55:31.864Z,31.00
2019-03-25T00:58:01.342Z,30.53
2019-03-25T01:00:30.800Z,27.77
2019-03-25T01:03:00.250Z,28.90
2019-03-25T01:05:29.741Z,27.90
2019-03-25T01:07:59.152Z,26.97
2019-03-25T01:10:28.612Z,31.73
2019-03-25T01:12:58.090Z,27.50
2019-03-25T01:15:27.515Z,38.67
2019-03-25T01:17:56.934Z,29.43
2019-03-25T01:20:26.448Z,28.67
2019-03-25T01:22:55.888Z,27.87
2019-03-25T01:25:25.356Z,26.80
2019-03-25T01:27:54.770Z,28.13
2019-03-25T01:30:24.195Z,29.80
2019-03-25T01:32:53.617Z,34.60
2019-03-25T01:35:23.107Z,46.93
2019-03-25T01:37:52.563Z,29.93
2019-03-25T01:40:22.024Z,30.03
2019-03-25T01:42:51.487Z,29.83
2019-03-25T01:45:21.018Z,40.13
2019-03-25T01:47:50.432Z,38.40
2019-03-25T01:50:19.855Z,28.77
2019-03-25T01:52:51.285Z,30.63
2019-03-25T01:55:20.842Z,28.83
2019-03-25T01:57:50.311Z,35.20
2019-03-25T02:00:19.808Z,33.03
2019-03-25T02:02:49.217Z,30.30
2019-03-25T02:05:19.739Z,29.07
2019-03-25T02:07:49.148Z,32.47
2019-03-25T02:10:18.931Z,32.67
2019-03-25T02:12:48.343Z,27.80
2019-03-25T02:15:17.841Z,26.80
2019-03-25T02:17:47.267Z,27.57
2019-03-25T02:20:25.727Z,24.33
2019-03-25T02:22:49.036Z,24.87
2019-03-25T02:25:25.317Z,28.60
2019-03-25T02:27:49.609Z,26.87
2019-03-25T02:30:19.239Z,27.97
2019-03-25T02:32:48.861Z,30.13
2019-03-25T02:35:18.335Z,28.43
2019-03-25T02:37:47.803Z,26.97
2019-03-25T02:40:17.237Z,28.63
2019-03-25T02:42:47.616Z,24.83
2019-03-25T02:45:18.027Z,30.50
2019-03-25T02:47:47.472Z,29.07
2019-03-25T02:50:17.364Z,30.07
2019-03-25T02:52:46.843Z,27.40
2019-03-25T02:55:16.256Z,26.57
2019-03-25T02:57:45.712Z,19.90
2019-03-25T03:00:18.193Z,29.30
2019-03-25T03:02:47.690Z,26.20
2019-03-25T03:05:17.117Z,27.80
2019-03-25T03:07:46.576Z,26.57
2019-03-25T03:10:16.075Z,26.90
2019-03-25T03:12:45.512Z,24.47
2019-03-25T03:15:14.919Z,20.43
2019-03-25T03:17:45.326Z,25.07
2019-03-25T03:20:14.724Z,29.00
2019-03-25T03:22:44.220Z,25.53
2019-03-25T03:25:13.845Z,25.23
2019-03-25T03:27:43.269Z,24.93
2019-03-25T03:30:13.269Z,24.53
2019-03-25T03:32:42.644Z,22.40
2019-03-25T03:35:12.218Z,21.50
2019-03-25T03:37:41.634Z,26.63
2019-03-25T03:40:12.004Z,28.47
2019-03-25T03:42:42.684Z,28.23
2019-03-25T03:45:13.499Z,25.23
2019-03-25T03:47:42.954Z,27.63
2019-03-25T03:50:15.428Z,28.83
2019-03-25T03:52:45.565Z,23.17
2019-03-25T03:55:15.058Z,25.90
2019-03-25T03:57:45.465Z,24.83
2019-03-25T04:00:17.941Z,28.97
2019-03-25T04:02:47.368Z,21.73
2019-03-25T04:05:16.967Z,22.13
2019-03-25T04:07:46.400Z,20.57
2019-03-25T04:10:15.895Z,22.27
2019-03-25T04:12:45.321Z,19.33
2019-03-25T04:15:17.843Z,20.00
2019-03-25T04:17:47.355Z,22.57
2019-03-25T04:20:16.767Z,21.90
2019-03-25T04:22:46.228Z,16.43
2019-03-25T04:25:15.642Z,19.93
2019-03-25T04:27:45.069Z,20.40
2019-03-25T04:30:14.822Z,20.43
2019-03-25T04:32:44.244Z,24.70
2019-03-25T04:35:13.743Z,22.53
2019-03-25T04:37:43.152Z,22.03
2019-03-25T04:40:13.945Z,18.17
2019-03-25T04:42:43.431Z,23.40
2019-03-25T04:45:13.098Z,19.20
2019-03-25T04:47:42.532Z,26.37
2019-03-25T04:50:12.176Z,21.00
2019-03-25T04:52:41.605Z,21.40
2019-03-25T04:55:11.254Z,22.97
2019-03-25T04:57:40.764Z,20.03
2019-03-25T05:00:10.537Z,19.30
2019-03-25T05:02:39.980Z,14.87
2019-03-25T05:05:09.799Z,21.83
2019-03-25T05:07:39.367Z,23.27
2019-03-25T05:10:09.145Z,23.43
2019-03-25T05:12:38.603Z,24.27
2019-03-25T05:15:08.204Z,22.20
2019-03-25T05:17:37.629Z,19.93
2019-03-25T05:20:07.322Z,25.37
2019-03-25T05:22:36.800Z,24.07
2019-03-25T05:25:07.856Z,18.60
2019-03-25T05:27:37.354Z,18.73
2019-03-25T05:30:07.512Z,20.07
2019-03-25T05:32:36.944Z,22.90
2019-03-25T05:35:07.535Z,18.87
2019-03-25T05:37:37.055Z,19.80
2019-03-25T05:40:07.117Z,20.10
2019-03-25T05:42:36.582Z,15.43
2019-03-25T05:45:07.412Z,19.97
2019-03-25T05:47:36.834Z,18.90
2019-03-25T05:50:09.234Z,21.02
2019-03-25T05:52:39.892Z,24.73
2019-03-25T05:55:09.492Z,17.30
2019-03-25T05:57:38.907Z,14.80
2019-03-25T06:00:08.798Z,14.17
2019-03-25T06:02:38.271Z,13.97
2019-03-25T06:05:07.905Z,17.93
2019-03-25T06:07:37.303Z,18.00
2019-03-25T06:10:07.435Z,17.00
2019-03-25T06:12:36.957Z,16.07
2019-03-25T06:15:08.215Z,16.57
2019-03-25T06:17:37.700Z,20.90
2019-03-25T06:20:07.797Z,13.97
2019-03-25T06:22:37.194Z,16.23
2019-03-25T06:25:07.895Z,19.80
2019-03-25T06:27:37.519Z,17.23
2019-03-25T06:30:09.180Z,15.53
2019-03-25T06:32:38.590Z,15.30
2019-03-25T06:35:09.518Z,6.43
2019-03-25T06:37:38.918Z,12.87
2019-03-25T06:40:09.283Z,14.03
2019-03-25T06:42:38.690Z,15.10
2019-03-25T06:45:08.849Z,9.33
2019-03-25T06:47:38.317Z,11.93
2019-03-25T06:50:09.149Z,13.83
2019-03-25T06:52:38.566Z,14.83
2019-03-25T06:55:09.273Z,12.97
2019-03-25T06:57:39.062Z,10.17
2019-03-25T07:00:11.954Z,15.47
2019-03-25T07:02:41.850Z,14.90
2019-03-25T07:05:13.090Z,14.77
2019-03-25T07:07:42.555Z,16.17
2019-03-25T07:10:12.514Z,13.20
2019-03-25T07:12:43.982Z,15.03
2019-03-25T07:15:13.664Z,12.20
2019-03-25T07:17:43.216Z,13.67
2019-03-25T07:20:12.912Z,14.17
2019-03-25T07:22:42.321Z,12.77
2019-03-25T07:25:13.285Z,18.90
2019-03-25T07:27:42.705Z,16.07
2019-03-25T07:30:12.465Z,10.53
2019-03-25T07:32:41.870Z,12.60
2019-03-25T07:35:12.250Z,15.57
2019-03-25T07:37:41.655Z,13.73
2019-03-25T07:40:11.560Z,10.27
2019-03-25T07:42:42.900Z,10.23
2019-03-25T07:45:12.954Z,12.40
2019-03-25T07:47:42.365Z,13.07
2019-03-25T07:50:12.012Z,10.15
2019-03-25T07:52:41.423Z,10.07
2019-03-25T07:55:11.610Z,9.90
2019-03-25T07:57:48.050Z,8.93
2019-03-25T08:00:14.377Z,8.70
2019-03-25T08:02:43.806Z,9.43
2019-03-25T08:05:14.499Z,9.57
2019-03-25T08:07:43.985Z,11.63
2019-03-25T08:10:13.915Z,8.47
2019-03-25T08:12:43.452Z,6.40
2019-03-25T08:15:13.155Z,10.20
2019-03-25T08:17:42.682Z,9.67
2019-03-25T08:20:12.393Z,14.05
2019-03-25T08:22:41.808Z,13.13
2019-03-25T08:25:11.768Z,15.97
2019-03-25T08:27:41.269Z,11.10
2019-03-25T08:30:11.237Z,13.70
2019-03-25T08:32:40.640Z,14.30
2019-03-25T08:35:10.511Z,11.77
2019-03-25T08:37:39.981Z,7.50
2019-03-25T08:40:10.993Z,17.97
2019-03-25T08:42:40.400Z,13.03
2019-03-25T08:45:11.682Z,10.20
2019-03-25T08:47:41.232Z,11.17
2019-03-25T08:50:11.680Z,10.57
2019-03-25T08:52:41.167Z,8.27
2019-03-25T08:55:10.796Z,5.80
2019-03-25T08:57:40.236Z,11.17
2019-03-25T09:00:13.071Z,13.77
2019-03-25T09:02:42.615Z,11.30
2019-03-25T09:05:12.445Z,7.73
2019-03-25T09:07:41.886Z,11.27
2019-03-25T09:10:12.202Z,9.70
2019-03-25T09:12:41.690Z,11.03
2019-03-25T09:15:11.834Z,10.60
2019-03-25T09:17:41.338Z,10.40
2019-03-25T09:20:11.493Z,11.73
2019-03-25T09:22:41.010Z,12.83
2019-03-25T09:25:10.767Z,11.93
2019-03-25T09:27:40.184Z,8.27
2019-03-25T09:30:10.597Z,11.10
2019-03-25T09:32:40.091Z,12.37
2019-03-25T09:35:10.925Z,11.03
2019-03-25T09:37:40.523Z,11.63
2019-03-25T09:40:10.975Z,10.07
2019-03-25T09:42:40.426Z,14.87
2019-03-25T09:45:10.587Z,14.70
2019-03-25T09:47:40.108Z,12.67
2019-03-25T09:50:10.931Z,9.87
2019-03-25T09:52:40.534Z,6.07
2019-03-25T09:55:10.355Z,9.73
2019-03-25T09:57:39.770Z,9.43
2019-03-25T10:00:12.570Z,5.83
2019-03-25T10:02:42.064Z,9.93
2019-03-25T10:05:11.700Z,18.87
2019-03-25T10:07:42.332Z,15.00
2019-03-25T10:10:12.063Z,14.27
2019-03-25T10:12:41.586Z,8.87
2019-03-25T10:15:11.339Z,13.57
2019-03-25T10:17:40.755Z,11.83
2019-03-25T10:20:10.510Z,9.90
2019-03-25T10:22:40.042Z,10.93
2019-03-25T10:25:10.778Z,11.20
2019-03-25T10:27:40.314Z,10.57
2019-03-25T10:30:12.057Z,10.40
2019-03-25T10:32:41.548Z,13.40
2019-03-25T10:35:11.493Z,9.97
2019-03-25T10:37:41.012Z,8.80
2019-03-25T10:40:10.825Z,13.07
2019-03-25T10:42:40.245Z,10.90
2019-03-25T10:45:10.771Z,6.17
2019-03-25T10:47:40.199Z,6.70
2019-03-25T10:50:09.855Z,13.27
2019-03-25T10:52:39.410Z,14.80
2019-03-25T10:55:09.942Z,8.63
2019-03-25T10:57:40.840Z,5.03
2019-03-25T11:00:11.945Z,8.07
2019-03-25T11:02:41.498Z,8.33
2019-03-25T11:05:12.421Z,9.70
2019-03-25T11:10:14.152Z,4.80
2019-03-25T11:12:44.684Z,11.10
2019-03-25T11:15:14.262Z,13.90
2019-03-25T11:17:43.683Z,9.03
2019-03-25T11:20:13.626Z,9.97
2019-03-25T11:22:43.140Z,14.30
2019-03-25T11:25:14.638Z,24.63
2019-03-25T11:27:53.957Z,13.73
2019-03-25T11:30:18.232Z,12.70
2019-03-25T11:32:47.678Z,10.87
2019-03-25T11:35:17.318Z,8.53
2019-03-25T11:37:46.725Z,9.60
2019-03-25T11:40:16.342Z,13.90
2019-03-25T11:42:45.751Z,8.73
2019-03-25T11:45:15.406Z,6.90
2019-03-25T11:47:44.837Z,8.37
2019-03-25T11:50:15.421Z,9.97
2019-03-25T11:52:46.439Z,13.30
2019-03-25T11:55:17.751Z,5.73
2019-03-25T11:57:47.335Z,6.53
2019-03-25T12:00:16.991Z,7.03
2019-03-25T12:02:46.401Z,4.13
2019-03-25T12:05:16.192Z,3.00
2019-03-25T12:07:45.591Z,3.03
2019-03-25T12:10:15.395Z,4.73
2019-03-25T12:12:44.799Z,3.40
2019-03-25T12:15:14.486Z,5.07
2019-03-25T12:17:43.969Z,6.53
2019-03-25T12:20:13.865Z,5.57
2019-03-25T12:22:43.270Z,3.87
2019-03-25T12:25:12.851Z,7.23
2019-03-25T12:27:42.256Z,5.33
2019-03-25T12:30:11.857Z,5.97
2019-03-25T12:32:41.316Z,5.47
2019-03-25T12:35:11.181Z,6.83
2019-03-25T12:37:40.583Z,5.73
2019-03-25T12:40:10.474Z,4.63
2019-03-25T12:42:39.950Z,5.90
2019-03-25T12:45:11.041Z,2.50
2019-03-25T12:47:40.451Z,3.80
2019-03-25T12:50:11.495Z,1.93
2019-03-25T12:52:42.085Z,3.43
2019-03-25T12:55:13.180Z,3.20
2019-03-25T12:57:42.751Z,2.67
2019-03-25T13:00:12.681Z,3.47
2019-03-25T13:02:42.085Z,3.67
2019-03-25T13:05:11.836Z,2.43
2019-03-25T13:07:41.237Z,1.70
2019-03-25T13:10:10.923Z,4.73
2019-03-25T13:12:40.426Z,3.20
2019-03-25T13:15:10.129Z,3.70
2019-03-25T13:17:39.543Z,3.70
2019-03-25T13:20:09.490Z,3.57
2019-03-25T13:22:38.890Z,3.30
2019-03-25T13:25:08.760Z,3.30
2019-03-25T13:27:38.170Z,2.20
2019-03-25T13:30:08.421Z,3.27
2019-03-25T13:32:37.938Z,3.00
2019-03-25T13:35:08.150Z,3.03
2019-03-25T13:37:37.581Z,2.93
2019-03-25T13:40:08.147Z,3.57
2019-03-25T13:42:37.546Z,1.87
2019-03-25T13:45:13.869Z,2.50
2019-03-25T13:47:43.547Z,2.90
2019-03-25T13:50:13.199Z,1.97
2019-03-25T13:52:42.668Z,2.13
2019-03-25T13:55:12.231Z,2.67
2019-03-25T13:57:41.690Z,2.50
2019-03-25T14:00:11.550Z,2.63
2019-03-25T14:02:41.933Z,2.93
2019-03-25T14:05:11.557Z,1.93
2019-03-25T14:07:41.015Z,1.93
2019-03-25T14:10:12.198Z,1.93
2019-03-25T14:12:42.348Z,2.93
2019-03-25T14:15:12.262Z,4.63
2019-03-25T14:17:41.667Z,1.90
2019-03-25T14:20:13.214Z,5.00
2019-03-25T14:22:42.632Z,2.23
2019-03-25T14:25:12.089Z,2.00
2019-03-25T14:27:41.491Z,2.60
2019-03-25T14:30:14.739Z,3.87
2019-03-25T14:32:42.722Z,2.37
2019-03-25T14:35:12.330Z,4.60
2019-03-25T14:37:41.778Z,2.30
2019-03-25T14:40:11.199Z,2.93
2019-03-25T14:42:40.645Z,5.77
2019-03-25T14:45:10.588Z,4.10
2019-03-25T14:47:40.102Z,2.90
2019-03-25T14:50:10.371Z,3.97
2019-03-25T14:52:40.909Z,3.27
2019-03-25T14:55:10.580Z,4.80
2019-03-25T14:57:40.031Z,3.23
2019-03-25T15:00:10.147Z,2.63
2019-03-25T15:02:39.577Z,2.80
2019-03-25T15:05:10.136Z,1.70
2019-03-25T15:07:39.639Z,2.20
2019-03-25T15:10:09.481Z,1.80
2019-03-25T15:12:39.002Z,2.67
2019-03-25T15:15:09.309Z,3.63
2019-03-25T15:17:38.757Z,2.83
2019-03-25T15:20:10.175Z,3.17
2019-03-25T15:22:39.941Z,2.70
2019-03-25T15:25:09.793Z,2.27
2019-03-25T15:27:40.365Z,4.70
2019-03-25T15:30:10.511Z,4.93
2019-03-25T15:32:40.000Z,2.77
2019-03-25T15:35:10.004Z,5.40
2019-03-25T15:37:39.453Z,5.23
2019-03-25T15:40:10.333Z,4.23
2019-03-25T15:42:39.865Z,4.97
2019-03-25T15:45:09.704Z,4.63
2019-03-25T15:47:40.365Z,3.23
2019-03-25T15:50:11.723Z,4.50
2019-03-25T15:52:41.350Z,5.07
2019-03-25T15:55:12.292Z,5.33
2019-03-25T15:57:41.776Z,5.23
2019-03-25T16:00:17.733Z,9.03
2019-03-25T16:02:47.292Z,7.80
2019-03-25T16:05:17.117Z,5.90
2019-03-25T16:07:46.582Z,7.07
2019-03-25T16:10:17.209Z,5.80
2019-03-25T16:12:47.120Z,5.67
2019-03-25T16:15:31.681Z,4.20
2019-03-25T16:18:01.167Z,4.50
2019-03-25T16:20:30.596Z,5.37
2019-03-25T16:23:00.059Z,8.03
2019-03-25T16:25:29.487Z,5.23
2019-03-25T16:27:59.048Z,4.63
2019-03-25T16:30:29.467Z,5.00
2019-03-25T16:32:58.901Z,6.77
2019-03-25T16:35:28.346Z,6.60
2019-03-25T16:38:00.598Z,5.47
2019-03-25T16:40:30.033Z,5.67
2019-03-25T16:43:00.066Z,6.50
2019-03-25T16:45:30.403Z,9.80
2019-03-25T16:47:59.835Z,9.17
2019-03-25T16:50:29.241Z,12.07
2019-03-25T16:52:58.955Z,6.17
2019-03-25T16:55:28.504Z,6.73
2019-03-25T16:57:57.969Z,8.57
2019-03-25T17:00:27.911Z,8.60
2019-03-25T17:02:57.481Z,7.13
2019-03-25T17:05:26.943Z,3.97
2019-03-25T17:07:56.645Z,6.70
2019-03-25T17:10:26.071Z,5.67
2019-03-25T17:12:58.629Z,5.40
2019-03-25T17:15:28.132Z,7.50
2019-03-25T17:17:57.545Z,5.97
2019-03-25T17:20:26.959Z,4.90
2019-03-25T17:22:56.374Z,3.90
2019-03-25T17:25:25.788Z,5.40
2019-03-25T17:27:55.248Z,4.60
2019-03-25T17:30:24.843Z,5.57
2019-03-25T17:32:54.262Z,5.23
2019-03-25T17:35:23.717Z,2.57
2019-03-25T17:37:53.139Z,3.60
2019-03-25T17:40:22.738Z,4.20
2019-03-25T17:42:52.196Z,6.00
2019-03-25T17:45:22.764Z,4.07
2019-03-25T17:47:52.163Z,7.10
2019-03-25T17:50:21.659Z,4.80
2019-03-25T17:52:51.148Z,3.60
2019-03-25T17:55:21.662Z,7.00
2019-03-25T17:57:51.065Z,3.93
2019-03-25T18:00:41.401Z,4.20
2019-03-25T18:03:15.259Z,4.53
2019-03-25T18:05:44.446Z,6.57
2019-03-25T18:08:13.999Z,5.13
2019-03-25T18:10:44.539Z,5.57
2019-03-25T18:13:22.022Z,6.20
2019-03-25T18:15:45.080Z,4.77
2019-03-25T18:18:14.477Z,6.70
2019-03-25T18:20:43.930Z,6.50
2019-03-25T18:23:13.462Z,5.50
2019-03-25T18:25:42.914Z,4.50
2019-03-25T18:28:12.315Z,8.67
2019-03-25T18:30:41.735Z,6.33
2019-03-25T18:33:11.133Z,6.27
2019-03-25T18:35:40.560Z,4.97
2019-03-25T18:38:10.385Z,5.57
2019-03-25T18:40:39.825Z,5.30
2019-03-25T18:43:09.371Z,4.50
2019-03-25T18:45:38.918Z,5.17
2019-03-25T18:48:08.414Z,5.40
2019-03-25T18:50:37.835Z,5.30
2019-03-25T18:53:07.301Z,4.90
2019-03-25T18:55:36.794Z,12.03
2019-03-25T18:58:06.939Z,13.23
2019-03-25T19:00:37.363Z,9.67
2019-03-25T19:03:06.861Z,6.50
2019-03-25T19:05:36.895Z,5.70
2019-03-25T19:08:06.638Z,3.87
2019-03-25T19:10:36.143Z,5.33
2019-03-25T19:13:05.563Z,9.40
2019-03-25T19:15:35.019Z,7.37
2019-03-25T19:18:04.491Z,9.53
2019-03-25T19:20:33.919Z,9.03
2019-03-25T19:23:03.388Z,9.63
2019-03-25T19:25:32.887Z,8.77
2019-03-25T19:28:03.835Z,5.90
2019-03-25T19:30:33.316Z,6.53
2019-03-25T19:33:02.790Z,8.37
2019-03-25T19:35:32.258Z,11.03
2019-03-25T19:38:01.708Z,8.27
2019-03-25T19:40:31.132Z,9.63
2019-03-25T19:43:00.578Z,6.47
2019-03-25T19:45:30.194Z,6.37
2019-03-25T19:47:59.713Z,6.23
2019-03-25T19:50:29.218Z,5.80
2019-03-25T19:52:58.697Z,4.53
2019-03-25T19:55:28.174Z,4.07
2019-03-25T19:57:57.606Z,4.10
2019-03-25T20:00:35.927Z,4.80
2019-03-25T20:03:06.184Z,5.17
2019-03-25T20:05:35.818Z,4.67
2019-03-25T20:08:05.468Z,5.63
2019-03-25T20:10:36.718Z,6.17
2019-03-25T20:13:06.474Z,4.67
2019-03-25T20:15:45.899Z,3.27
2019-03-25T20:18:09.746Z,4.77
2019-03-25T20:20:39.211Z,8.13
2019-03-25T20:23:08.712Z,4.67
2019-03-25T20:25:38.124Z,5.00
2019-03-25T20:28:07.675Z,5.33
2019-03-25T20:30:37.232Z,7.33
2019-03-25T20:33:06.815Z,6.57
2019-03-25T20:35:36.346Z,6.47
2019-03-25T20:38:05.841Z,6.27
2019-03-25T20:40:35.402Z,7.50
2019-03-25T20:43:04.792Z,9.93
2019-03-25T20:45:34.282Z,8.03
2019-03-25T20:48:03.977Z,6.00
2019-03-25T20:50:33.541Z,5.57
2019-03-25T20:53:05.567Z,6.37
2019-03-25T20:55:34.995Z,7.63
2019-03-25T20:58:04.456Z,8.77
2019-03-25T21:00:51.570Z,9.30
2019-03-25T21:03:23.255Z,6.33
2019-03-25T21:05:52.758Z,7.37
2019-03-25T21:08:22.233Z,8.40
2019-03-25T21:10:51.802Z,11.67
2019-03-25T21:13:21.267Z,7.80
2019-03-25T21:15:50.849Z,11.50
2019-03-25T21:18:20.435Z,11.83
2019-03-25T21:20:49.843Z,10.07
2019-03-25T21:23:20.591Z,10.83
2019-03-25T21:25:50.128Z,12.00
2019-03-25T21:28:19.625Z,8.23
2019-03-25T21:30:49.103Z,8.57
2019-03-25T21:33:18.639Z,8.50
2019-03-25T21:35:52.491Z,8.20
2019-03-25T21:38:22.012Z,10.60
2019-03-25T21:40:51.485Z,9.80
2019-03-25T21:43:21.103Z,7.70
2019-03-25T21:45:51.497Z,7.57
2019-03-25T21:48:21.121Z,8.13
2019-03-25T21:50:50.603Z,11.07
2019-03-25T21:53:20.086Z,11.17
2019-03-25T21:55:49.565Z,9.07
2019-03-25T21:58:19.089Z,9.10
2019-03-25T22:00:48.644Z,7.80
2019-03-25T22:03:18.329Z,11.63
2019-03-25T22:05:47.745Z,11.40
2019-03-25T22:08:17.219Z,11.10
2019-03-25T22:10:46.630Z,7.83
2019-03-25T22:13:16.155Z,4.87
2019-03-25T22:15:45.654Z,11.43
2019-03-25T22:18:15.078Z,12.43
2019-03-25T22:20:44.713Z,12.65
2019-03-25T22:23:14.316Z,11.13
2019-03-25T22:25:43.725Z,9.83
2019-03-25T22:28:13.290Z,9.43
2019-03-25T22:30:43.055Z,9.20
2019-03-25T22:33:25.092Z,11.67
2019-03-25T22:35:47.037Z,10.03
2019-03-25T22:38:16.552Z,9.67
2019-03-25T22:40:45.961Z,10.97
2019-03-25T22:43:15.414Z,11.63
2019-03-25T22:45:44.827Z,9.97
2019-03-25T22:48:14.371Z,9.13
2019-03-25T22:50:43.782Z,9.97
2019-03-25T22:53:13.273Z,9.23
2019-03-25T22:55:42.686Z,9.03
2019-03-25T22:58:12.368Z,10.73
2019-03-25T23:00:45.579Z,10.40
2019-03-25T23:03:18.744Z,10.50
2019-03-25T23:05:48.865Z,12.03
2019-03-25T23:08:21.961Z,12.33
2019-03-25T23:10:52.923Z,12.07
2019-03-25T23:13:22.850Z,12.47
2019-03-25T23:15:52.764Z,9.90
2019-03-25T23:18:22.811Z,12.60
2019-03-25T23:20:52.889Z,13.00
2019-03-25T23:23:24.452Z,15.73
2019-03-25T23:25:55.979Z,13.30
2019-03-25T23:28:28.457Z,15.10
2019-03-25T23:30:59.979Z,15.07
2019-03-25T23:33:29.829Z,12.93
2019-03-25T23:35:59.500Z,11.47
2019-03-25T23:38:28.989Z,10.47
2019-03-25T23:40:58.418Z,13.17
2019-03-25T23:43:27.897Z,10.80
2019-03-25T23:45:57.339Z,14.63
2019-03-25T23:48:27.930Z,12.23
2019-03-25T23:50:57.445Z,12.80
2019-03-25T23:53:26.926Z,12.43
2019-03-25T23:55:56.400Z,11.60
2019-03-25T23:58:25.932Z,14.97
